createdAt,value
2018-08-11T00:00:27.862Z,95.50
2018-08-11T00:02:58.960Z,95.40
2018-08-11T00:05:30.580Z,95.30
2018-08-11T00:08:01.263Z,95.30
2018-08-11T00:10:32.302Z,95.40
2018-08-11T00:13:03.977Z,95.50
2018-08-11T00:15:34.144Z,95.30
2018-08-11T00:18:04.702Z,95.30
2018-08-11T00:20:35.601Z,95.40
2018-08-11T00:23:05.989Z,95.70
2018-08-11T00:25:36.167Z,95.50
2018-08-11T00:28:07.024Z,95.50
2018-08-11T00:30:38.284Z,95.30
2018-08-11T00:33:08.280Z,95.20
2018-08-11T00:35:38.280Z,95.10
2018-08-11T00:38:09.525Z,95.20
2018-08-11T00:40:39.949Z,95.40
2018-08-11T00:43:10.042Z,95.40
2018-08-11T00:45:40.712Z,95.40
2018-08-11T00:48:10.572Z,95.20
2018-08-11T00:50:40.557Z,95.00
2018-08-11T00:53:11.076Z,94.90
2018-08-11T00:55:41.114Z,94.70
2018-08-11T00:58:12.227Z,94.80
2018-08-11T01:00:42.459Z,94.50
2018-08-11T01:03:12.974Z,92.80
2018-08-11T01:05:43.680Z,92.80
2018-08-11T01:08:14.478Z,93.00
2018-08-11T01:10:46.306Z,93.00
2018-08-11T01:13:16.255Z,93.00
2018-08-11T01:15:46.200Z,93.00
2018-08-11T01:18:16.004Z,93.10
2018-08-11T01:20:46.133Z,93.00
2018-08-11T01:23:16.414Z,93.10
2018-08-11T01:25:46.571Z,93.00
2018-08-11T01:28:16.900Z,92.90
2018-08-11T01:30:47.034Z,92.90
2018-08-11T01:33:17.425Z,92.60
2018-08-11T01:35:47.352Z,92.60
2018-08-11T01:38:17.979Z,92.50
2018-08-11T01:40:47.974Z,92.60
2018-08-11T01:43:17.961Z,92.40
2018-08-11T01:45:47.936Z,92.50
2018-08-11T01:48:17.858Z,92.50
2018-08-11T01:50:47.959Z,92.10
2018-08-11T01:53:18.336Z,91.80
2018-08-11T01:55:49.095Z,91.80
2018-08-11T01:58:19.105Z,91.80
2018-08-11T02:00:49.074Z,91.70
2018-08-11T02:03:19.774Z,91.60
2018-08-11T02:05:49.926Z,91.50
2018-08-11T02:08:20.466Z,91.60
2018-08-11T02:10:50.593Z,91.70
2018-08-11T02:13:20.553Z,91.70
2018-08-11T02:15:50.554Z,91.60
2018-08-11T02:18:20.536Z,91.50
2018-08-11T02:20:50.434Z,91.40
2018-08-11T02:23:20.665Z,91.60
2018-08-11T02:25:50.872Z,91.70
2018-08-11T02:28:21.493Z,91.90
2018-08-11T02:34:00.858Z,92.00
2018-08-11T02:36:30.298Z,92.30
2018-08-11T02:39:03.259Z,92.20
2018-08-11T02:41:37.913Z,91.70
2018-08-11T02:44:11.684Z,91.90
2018-08-11T02:46:45.233Z,91.90
2018-08-11T02:49:21.910Z,92.10
2018-08-11T02:51:55.896Z,92.10
2018-08-11T02:54:30.239Z,92.30
2018-08-11T02:57:04.090Z,92.30
2018-08-11T02:59:38.596Z,92.50
2018-08-11T03:02:15.637Z,92.40
2018-08-11T03:04:48.174Z,92.40
2018-08-11T03:07:21.778Z,92.90
2018-08-11T03:09:55.697Z,92.80
2018-08-11T03:12:30.112Z,92.80
2018-08-11T03:15:02.501Z,93.00
2018-08-11T03:17:34.956Z,92.90
2018-08-11T03:20:08.891Z,93.00
2018-08-11T03:22:41.712Z,93.00
2018-08-11T03:25:14.763Z,92.90
2018-08-11T03:27:48.247Z,93.30
2018-08-11T03:30:25.913Z,93.60
2018-08-11T03:33:01.208Z,93.60
2018-08-11T03:35:31.478Z,93.60
2018-08-11T03:38:05.978Z,94.00
2018-08-11T03:40:40.878Z,94.00
2018-08-11T03:43:16.865Z,94.00
2018-08-11T03:45:53.950Z,93.90
2018-08-11T03:48:28.304Z,93.90
2018-08-11T03:51:00.338Z,94.10
2018-08-11T03:53:33.787Z,94.30
2018-08-11T03:56:08.582Z,94.40
2018-08-11T03:58:42.371Z,94.50
2018-08-11T04:01:14.342Z,94.60
2018-08-11T04:03:47.037Z,94.90
2018-08-11T04:06:18.803Z,95.10
2018-08-11T04:08:50.747Z,95.10
2018-08-11T04:11:22.631Z,95.10
2018-08-11T04:13:53.633Z,94.90
2018-08-11T04:16:27.466Z,94.90
2018-08-11T04:18:58.144Z,95.10
2018-08-11T04:21:29.053Z,95.10
2018-08-11T04:24:01.233Z,94.80
2018-08-11T04:26:36.587Z,94.60
2018-08-11T04:29:10.530Z,95.10
2018-08-11T04:31:42.397Z,95.20
2018-08-11T04:34:14.475Z,95.40
2018-08-11T04:36:48.540Z,95.50
2018-08-11T04:39:22.108Z,95.20
2018-08-11T04:41:52.969Z,95.20
2018-08-11T04:44:25.291Z,95.10
2018-08-11T04:46:56.685Z,95.20
2018-08-11T04:49:31.107Z,95.50
2018-08-11T04:52:05.468Z,95.50
2018-08-11T04:54:36.764Z,95.20
2018-08-11T04:57:07.520Z,94.50
2018-08-11T04:59:41.693Z,93.40
2018-08-11T05:02:13.361Z,92.60
2018-08-11T05:04:45.388Z,91.80
2018-08-11T05:07:17.847Z,92.30
2018-08-11T05:09:48.477Z,91.70
2018-08-11T05:12:18.873Z,91.50
2018-08-11T05:14:50.149Z,90.90
2018-08-11T05:17:20.154Z,90.60
2018-08-11T05:19:50.650Z,90.80
2018-08-11T05:22:21.425Z,90.40
2018-08-11T05:24:54.438Z,90.30
2018-08-11T05:27:30.406Z,90.40
2018-08-11T05:30:04.786Z,90.10
2018-08-11T05:32:45.755Z,89.70
2018-08-11T05:35:25.657Z,87.20
2018-08-11T05:37:59.500Z,86.70
2018-08-11T05:43:32.928Z,81.80
2018-08-11T05:46:05.827Z,82.80
2018-08-11T05:48:40.304Z,82.70
2018-08-11T05:51:15.897Z,80.60
2018-08-11T05:53:46.070Z,80.70
2018-08-11T05:56:15.576Z,81.20
2018-08-11T05:58:51.498Z,80.00
2018-08-11T06:01:22.503Z,81.00
2018-08-11T06:04:01.818Z,80.50
2018-08-11T06:06:33.889Z,81.30
2018-08-11T06:09:10.530Z,80.50
2018-08-11T06:11:48.345Z,79.50
2018-08-11T06:14:29.431Z,80.00
2018-08-11T06:17:09.541Z,79.70
2018-08-11T06:19:44.854Z,77.90
2018-08-11T06:22:18.384Z,77.80
2018-08-11T06:24:49.666Z,76.80
2018-08-11T06:27:21.667Z,77.50
2018-08-11T06:30:04.244Z,76.20
2018-08-11T06:32:36.685Z,75.10
2018-08-11T06:35:08.589Z,75.80
2018-08-11T06:37:39.058Z,75.80
2018-08-11T06:40:15.145Z,74.80
2018-08-11T06:42:52.027Z,74.50
2018-08-11T06:45:28.407Z,74.10
2018-08-11T06:48:05.363Z,74.70
2018-08-11T06:50:42.304Z,73.60
2018-08-11T06:53:17.443Z,72.60
2018-08-11T06:55:54.376Z,71.70
2018-08-11T06:58:32.598Z,72.40
2018-08-11T07:01:13.960Z,73.10
2018-08-11T07:45:49.498Z,76.90
2018-08-11T07:48:20.608Z,76.20
2018-08-11T07:50:50.665Z,76.30
2018-08-11T07:53:21.995Z,77.90
2018-08-11T07:55:52.279Z,77.00
2018-08-11T07:58:22.316Z,77.00
2018-08-11T08:00:54.241Z,77.20
2018-08-11T08:03:24.172Z,75.70
2018-08-11T08:05:58.200Z,75.30
2018-08-11T08:08:28.460Z,76.00
2018-08-11T08:11:09.293Z,74.40
2018-08-11T08:13:46.472Z,75.60
2018-08-11T08:16:17.231Z,75.40
2018-08-11T08:18:48.147Z,74.10
2018-08-11T08:21:18.243Z,73.40
2018-08-11T08:23:48.625Z,74.20
2018-08-11T08:26:19.012Z,74.60
2018-08-11T08:28:49.158Z,73.40
2018-08-11T08:31:22.021Z,73.50
2018-08-11T08:33:53.061Z,74.50
2018-08-11T08:36:23.100Z,73.50
2018-08-11T08:38:53.167Z,72.50
2018-08-11T08:41:23.566Z,73.20
2018-08-11T08:43:53.673Z,72.20
2018-08-11T08:46:23.725Z,71.00
2018-08-11T08:48:54.115Z,71.70
2018-08-11T08:51:24.309Z,72.80
2018-08-11T08:53:54.519Z,72.00
2018-08-11T08:56:24.467Z,71.80
2018-08-11T08:58:54.399Z,71.20
2018-08-11T09:01:26.952Z,71.60
2018-08-11T09:03:57.289Z,72.90
2018-08-11T09:06:27.775Z,72.40
2018-08-11T09:08:57.685Z,73.80
2018-08-11T09:11:28.030Z,71.30
2018-08-11T09:14:00.679Z,72.70
2018-08-11T09:16:36.843Z,71.50
2018-08-11T09:19:07.032Z,71.80
2018-08-11T09:21:43.249Z,73.40
2018-08-11T09:24:22.665Z,73.80
2018-08-11T09:26:56.726Z,73.50
2018-08-11T09:29:27.193Z,73.40
2018-08-11T09:31:57.491Z,72.90
2018-08-11T09:34:27.511Z,73.50
2018-08-11T09:36:57.799Z,72.30
2018-08-11T09:39:27.993Z,71.40
2018-08-11T09:42:01.673Z,73.70
2018-08-11T09:44:32.770Z,72.80
2018-08-11T09:47:04.284Z,73.20
2018-08-11T09:49:35.486Z,73.30
2018-08-11T09:52:09.496Z,72.80
2018-08-11T09:54:40.328Z,72.70
2018-08-11T09:57:11.497Z,72.00
2018-08-11T09:59:41.609Z,71.70
2018-08-11T10:02:21.472Z,71.20
2018-08-11T10:04:52.778Z,71.20
2018-08-11T10:07:23.037Z,70.30
2018-08-11T10:09:52.985Z,70.80
2018-08-11T10:12:22.879Z,69.40
2018-08-11T10:14:55.753Z,69.80
2018-08-11T10:17:25.725Z,71.10
2018-08-11T10:19:56.346Z,69.80
2018-08-11T10:22:27.809Z,68.50
2018-08-11T10:24:58.644Z,69.50
2018-08-11T10:27:30.650Z,68.10
2018-08-11T10:30:06.010Z,68.00
2018-08-11T10:32:39.409Z,68.70
2018-08-11T10:35:19.770Z,67.90
2018-08-11T10:37:52.479Z,67.90
2018-08-11T10:40:22.949Z,66.10
2018-08-11T10:45:45.113Z,67.70
2018-08-11T10:48:17.859Z,65.60
2018-08-11T10:50:54.628Z,65.10
2018-08-11T10:53:28.298Z,66.20
2018-08-11T10:56:02.781Z,67.20
2018-08-11T10:58:38.841Z,67.00
2018-08-11T11:01:18.083Z,66.80
2018-08-11T11:03:59.012Z,67.60
2018-08-11T11:06:33.308Z,67.70
2018-08-11T11:09:05.550Z,67.30
2018-08-11T11:11:42.457Z,66.60
2018-08-11T11:14:17.385Z,66.00
2018-08-11T11:16:57.751Z,63.90
2018-08-11T11:19:36.385Z,63.80
2018-08-11T11:22:07.640Z,63.80
2018-08-11T11:24:39.112Z,65.20
2018-08-11T11:27:08.752Z,64.60
2018-08-11T11:29:41.580Z,63.30
2018-08-11T11:32:11.950Z,64.40
2018-08-11T11:34:44.464Z,64.10
2018-08-11T11:37:16.143Z,63.30
2018-08-11T11:39:46.185Z,62.20
2018-08-11T11:42:15.700Z,61.90
2018-08-11T11:44:45.191Z,63.40
2018-08-11T11:47:16.853Z,63.20
2018-08-11T11:49:47.957Z,63.60
2018-08-11T11:52:19.296Z,62.60
2018-08-11T11:54:52.541Z,63.00
2018-08-11T11:57:31.281Z,63.40
2018-08-11T12:00:11.691Z,62.90
2018-08-11T12:02:51.237Z,61.90
2018-08-11T12:05:29.540Z,61.00
2018-08-11T12:08:07.587Z,59.80
2018-08-11T12:10:43.245Z,60.20
2018-08-11T12:13:29.322Z,60.10
2018-08-11T12:16:03.864Z,59.30
2018-08-11T12:18:46.138Z,59.20
2018-08-11T12:21:21.655Z,58.60
2018-08-11T12:24:03.058Z,59.30
2018-08-11T12:26:40.132Z,60.70
2018-08-11T12:29:20.820Z,60.10
2018-08-11T12:31:59.692Z,60.10
2018-08-11T12:34:38.485Z,60.50
2018-08-11T12:37:17.931Z,59.80
2018-08-11T12:39:54.855Z,59.10
2018-08-11T12:42:26.597Z,58.40
2018-08-11T12:45:08.791Z,58.80
2018-08-11T12:47:51.380Z,60.00
2018-08-11T12:50:26.118Z,59.90
2018-08-11T12:53:06.113Z,59.70
2018-08-11T12:55:39.117Z,59.60
2018-08-11T12:58:15.887Z,61.10
2018-08-11T13:00:56.966Z,61.90
2018-08-11T13:03:33.221Z,61.00
2018-08-11T13:06:08.809Z,59.40
2018-08-11T13:08:48.337Z,59.00
2018-08-11T13:11:31.155Z,58.80
2018-08-11T13:14:12.080Z,59.60
2018-08-11T13:16:50.721Z,61.50
2018-08-11T13:19:29.535Z,61.00
2018-08-11T13:22:01.846Z,62.20
2018-08-11T13:24:37.009Z,60.80
2018-08-11T13:27:15.204Z,59.20
2018-08-11T13:32:26.969Z,58.20
2018-08-11T13:35:02.450Z,58.70
2018-08-11T13:37:41.678Z,59.60
2018-08-11T13:40:21.268Z,57.40
2018-08-11T13:42:59.041Z,58.50
2018-08-11T13:45:33.204Z,59.60
2018-08-11T13:48:05.474Z,58.60
2018-08-11T13:50:41.292Z,59.80
2018-08-11T13:53:16.761Z,59.90
2018-08-11T13:55:49.627Z,58.70
2018-08-11T13:58:26.885Z,59.90
2018-08-11T14:01:05.135Z,59.60
2018-08-11T14:03:40.291Z,59.40
2018-08-11T14:06:16.582Z,60.10
2018-08-11T14:08:51.964Z,59.00
2018-08-11T14:11:27.340Z,59.20
2018-08-11T14:14:00.156Z,59.20
2018-08-11T14:16:37.961Z,59.10
2018-08-11T14:19:14.402Z,59.50
2018-08-11T14:21:51.839Z,59.30
2018-08-11T14:24:33.419Z,60.10
2018-08-11T14:27:08.952Z,60.50
2018-08-11T14:29:42.605Z,59.40
2018-08-11T14:32:14.643Z,60.40
2018-08-11T14:34:50.191Z,59.60
2018-08-11T14:37:27.897Z,59.10
2018-08-11T14:40:07.860Z,58.80
2018-08-11T14:42:48.258Z,59.00
2018-08-11T14:45:22.130Z,59.10
2018-08-11T14:47:56.950Z,59.60
2018-08-11T14:50:32.904Z,59.90
2018-08-11T14:53:06.103Z,61.20
2018-08-11T14:55:39.855Z,61.90
2018-08-11T14:58:14.177Z,61.90
2018-08-11T15:00:48.853Z,61.00
2018-08-11T15:03:22.823Z,61.60
2018-08-11T15:05:56.821Z,61.80
2018-08-11T15:08:30.078Z,61.60
2018-08-11T15:11:05.000Z,62.40
2018-08-11T15:13:41.989Z,62.50
2018-08-11T15:16:15.590Z,61.90
2018-08-11T15:18:48.998Z,61.00
2018-08-11T15:21:25.306Z,61.50
2018-08-11T15:23:58.330Z,60.40
2018-08-11T15:26:37.130Z,60.20
2018-08-11T15:29:11.893Z,59.90
2018-08-11T15:31:52.136Z,60.30
2018-08-11T15:34:32.675Z,60.50
2018-08-11T15:37:09.347Z,60.30
2018-08-11T15:39:47.587Z,60.00
2018-08-11T18:54:25.464Z,65.70
2018-08-11T18:56:55.642Z,65.80
2018-08-11T18:59:27.475Z,65.60
2018-08-11T19:01:58.564Z,65.70
2018-08-11T19:04:29.067Z,66.10
2018-08-11T19:06:59.091Z,66.10
2018-08-11T19:09:31.607Z,67.10
2018-08-11T19:12:03.232Z,67.50
2018-08-11T19:14:33.675Z,68.00
2018-08-11T19:17:04.176Z,69.20
2018-08-11T19:19:34.635Z,69.60
2018-08-11T19:22:04.762Z,69.70
2018-08-11T19:24:34.679Z,69.50
2018-08-11T19:27:04.563Z,70.50
2018-08-11T19:29:34.649Z,70.80
2018-08-11T19:32:05.769Z,71.20
2018-08-11T19:34:35.668Z,70.20
2018-08-11T19:37:06.022Z,71.60
2018-08-11T19:39:36.283Z,70.60
2018-08-11T19:42:07.127Z,71.50
2018-08-11T19:44:36.868Z,72.00
2018-08-11T19:47:06.677Z,72.00
2018-08-11T19:49:36.591Z,72.50
2018-08-11T19:52:06.823Z,72.90
2018-08-11T19:54:36.803Z,74.00
2018-08-11T19:57:06.766Z,73.70
2018-08-11T19:59:36.630Z,73.60
2018-08-11T20:02:06.645Z,73.50
2018-08-11T20:04:37.296Z,73.50
2018-08-11T20:07:07.327Z,73.70
2018-08-11T20:09:37.157Z,74.00
2018-08-11T20:12:06.947Z,74.40
2018-08-11T20:14:36.997Z,74.40
2018-08-11T20:17:07.359Z,74.90
2018-08-11T20:19:37.184Z,75.60
2018-08-11T20:22:13.037Z,75.80
2018-08-11T20:24:43.076Z,75.90
2018-08-11T20:27:13.321Z,76.20
2018-08-11T20:29:43.206Z,76.00
2018-08-11T20:32:14.237Z,77.10
2018-08-11T20:34:44.590Z,76.30
2018-08-11T20:37:14.447Z,76.20
2018-08-11T20:39:44.312Z,76.20
2018-08-11T20:42:14.124Z,76.20
2018-08-11T20:44:43.939Z,75.50
2018-08-11T20:47:13.692Z,76.50
2018-08-11T20:49:43.426Z,76.30
2018-08-11T20:52:13.163Z,77.00
2018-08-11T20:54:44.035Z,77.10
2018-08-11T20:57:13.943Z,77.80
2018-08-11T20:59:43.948Z,77.80
2018-08-11T21:02:14.728Z,77.70
2018-08-11T21:04:45.586Z,77.60
2018-08-11T21:07:15.887Z,76.20
2018-08-11T21:09:46.031Z,76.90
2018-08-11T21:12:16.039Z,78.40
2018-08-11T21:14:46.841Z,78.90
2018-08-11T21:17:16.795Z,78.70
2018-08-11T21:19:46.928Z,78.70
2018-08-11T21:22:16.802Z,79.10
2018-08-11T21:24:46.949Z,79.30
2018-08-11T21:27:17.667Z,79.30
2018-08-11T21:29:47.389Z,79.60
2018-08-11T21:32:17.803Z,81.10
2018-08-11T21:34:49.106Z,81.20
2018-08-11T21:37:18.853Z,81.30
2018-08-11T21:39:48.774Z,82.50
2018-08-11T21:42:19.043Z,82.10
2018-08-11T21:44:48.807Z,82.40
2018-08-11T21:47:18.580Z,82.60
2018-08-11T21:49:48.327Z,83.30
2018-08-11T21:52:18.232Z,83.90
2018-08-11T21:54:48.668Z,84.00
2018-08-11T21:57:18.589Z,83.90
2018-08-11T21:59:48.443Z,83.90
2018-08-11T22:02:18.293Z,83.60
2018-08-11T22:04:48.207Z,83.20
2018-08-11T22:07:18.395Z,83.80
2018-08-11T22:09:48.875Z,84.00
2018-08-11T22:12:19.504Z,84.60
2018-08-11T22:14:49.236Z,84.60
2018-08-11T22:17:18.976Z,85.20
2018-08-11T22:19:48.665Z,85.60
2018-08-11T22:22:18.444Z,86.10
2018-08-11T22:24:48.245Z,86.30
2018-08-11T22:27:18.148Z,86.60
2018-08-11T22:29:48.272Z,86.20
2018-08-11T22:32:18.085Z,86.50
2018-08-11T22:34:47.851Z,86.90
2018-08-11T22:37:17.702Z,86.90
2018-08-11T22:39:47.410Z,87.10
2018-08-11T22:42:17.272Z,87.60
2018-08-11T22:44:47.677Z,87.80
2018-08-11T22:47:17.621Z,87.90
2018-08-11T22:49:47.374Z,87.90
2018-08-11T22:52:17.459Z,88.20
2018-08-11T22:54:47.305Z,88.90
2018-08-11T22:57:16.983Z,88.90
2018-08-11T22:59:46.654Z,89.20
2018-08-11T23:02:16.575Z,89.20
2018-08-11T23:04:46.584Z,89.10
2018-08-11T23:07:16.536Z,89.90
2018-08-11T23:09:46.465Z,90.10
2018-08-11T23:12:16.333Z,90.20
2018-08-11T23:14:46.138Z,90.10
2018-08-11T23:17:16.073Z,90.00
2018-08-11T23:19:45.689Z,90.00
2018-08-11T23:22:15.269Z,90.20
2018-08-11T23:24:45.058Z,90.40
2018-08-11T23:27:14.901Z,90.50
2018-08-11T23:29:45.293Z,90.50
2018-08-11T23:32:15.229Z,90.80
2018-08-11T23:34:44.984Z,90.90
2018-08-11T23:37:14.711Z,91.00
2018-08-11T23:39:45.310Z,91.10
2018-08-11T23:42:15.224Z,91.10
2018-08-11T23:44:45.110Z,91.30
2018-08-11T23:47:14.915Z,91.30
2018-08-11T23:49:44.720Z,91.30
2018-08-11T23:52:14.480Z,91.30
2018-08-11T23:54:44.208Z,91.30
2018-08-11T23:57:14.368Z,91.40
2018-08-11T23:59:44.840Z,91.40
